Clare Christine — V2DT7 — position and weather

sailwx.info

Track history (hours):
 
Tides and Currents Weather Stations Pressure Air Temp Water Temp Dewpoint Dewpoint Depression Visibility Wind Speed Wind Dir Waves Ship Positions

Clare Christine

Last reported at 2015-May-27 16:28 UTC. Time now 2015-May-27 22:05 UTC.
Position N 54°15' E 005°13'.

Length 89 m; draft 5.6 m.

Type: Cargo ship. MMSI: 305379000.

Date/timePositionNaut miles runAvg speedWind from/ knotsBaromVisibWave heightAir tempDewpointWater temp
2015-May-27 16:28N 54°15' E 005°13'9 9.5
2015-May-27 15:33N 54°06' E 005°10'10 9.6
2015-May-27 14:33N 53°57' E 005°04'10 9.8
2015-May-27 13:32N 53°48' E 004°58'1010.4
2015-May-27 12:33N 53°38' E 004°52'1110.6
2015-May-27 11:33N 53°29' E 004°45'1110.7
2015-May-27 10:33N 53°19' E 004°38'41 9.7
2015-May-27 06:22N 52°43' E 004°05'17 8.1
2015-May-27 04:18N 52°28' E 003°54'6 7.8
2015-May-27 03:32N 52°22' E 003°52'8 7.9
2015-May-27 02:33N 52°14' E 003°53'8 8.1
2015-May-27 01:33N 52°06' E 003°55'6 6.2
2015-May-27 00:33N 52°01' E 003°60'6 6.2
2015-May-26 23:33N 51°57' E 004°08'0 0.0
2015-May-26 22:34N 51°57' E 004°08'0 0.0
2015-May-26 21:33N 51°57' E 004°08'0 0.0
2015-May-26 20:33N 51°57' E 004°08'0 0.0
2015-May-26 19:33N 51°57' E 004°08'0 0.0
2015-May-26 18:33N 51°57' E 004°08'0 0.0
2015-May-26 17:33N 51°57' E 004°08'1 0.9
2015-May-26 16:33N 51°57' E 004°09'0 0.0
2015-May-26 15:33N 51°57' E 004°09'0 0.0
2015-May-26 14:33N 51°57' E 004°09'0 0.0
2015-May-26 13:33N 51°57' E 004°09'0 0.0
2015-May-26 12:33N 51°57' E 004°09'0 0.0
2015-May-26 11:33N 51°57' E 004°09'0 0.0
2015-May-26 10:33N 51°57' E 004°09'0 0.0
2015-May-26 09:33N 51°57' E 004°09'0 0.0
2015-May-26 08:33N 51°57' E 004°09'0 0.0
2015-May-26 07:33N 51°57' E 004°09'0 0.0
2015-May-26 06:33N 51°57' E 004°09'0 0.0
2015-May-26 05:33N 51°57' E 004°09'0 0.0
2015-May-26 04:33N 51°57' E 004°09'0 0.0
2015-May-26 03:33N 51°57' E 004°09'0 0.0
2015-May-26 02:33N 51°57' E 004°09'0 0.0
2015-May-26 01:33N 51°57' E 004°09'0 0.0
2015-May-26 00:33N 51°57' E 004°09'0 0.0
2015-May-25 23:33N 51°57' E 004°09'0 0.0
2015-May-25 22:33N 51°57' E 004°09'0 0.0
2015-May-25 21:33N 51°57' E 004°09'0 0.0
2015-May-25 20:33N 51°57' E 004°09'0 0.0
2015-May-25 19:33N 51°57' E 004°09'0 0.0
2015-May-25 18:33N 51°57' E 004°09'0 0.0
2015-May-25 17:33N 51°57' E 004°09'0 0.0
2015-May-25 16:33N 51°57' E 004°09'0 0.0
2015-May-25 15:33N 51°57' E 004°09'0 0.0
2015-May-25 14:33N 51°57' E 004°09'0 0.0
2015-May-25 13:33N 51°57' E 004°09'0 0.0
2015-May-25 12:33N 51°57' E 004°09'0 0.0
2015-May-25 11:33N 51°57' E 004°09'0 0.0
2015-May-25 10:33N 51°57' E 004°09'0 0.0
2015-May-25 09:33N 51°57' E 004°09'0 0.0
2015-May-25 08:33N 51°57' E 004°09'0 0.0
2015-May-25 07:33N 51°57' E 004°09'0 0.0
2015-May-25 06:33N 51°57' E 004°09'0 0.0
2015-May-25 05:33N 51°57' E 004°09'0 0.0
2015-May-25 04:33N 51°57' E 004°09'0 0.0
2015-May-25 03:33N 51°57' E 004°09'0 0.0
2015-May-25 02:33N 51°57' E 004°09'0 0.0
2015-May-25 01:33N 51°57' E 004°09'0 0.0
2015-May-25 00:33N 51°57' E 004°09'0 0.0
2015-May-24 23:33N 51°57' E 004°09'0 0.0
2015-May-24 22:33N 51°57' E 004°09'0 0.0
2015-May-24 21:33N 51°57' E 004°09'0 0.0
2015-May-24 20:33N 51°57' E 004°09'0 0.0
2015-May-24 19:33N 51°57' E 004°09'0 0.0
2015-May-24 18:33N 51°57' E 004°09'0 0.0
2015-May-24 17:33N 51°57' E 004°09'0 0.0
2015-May-24 16:33N 51°57' E 004°09'0 0.0
2015-May-24 15:33N 51°57' E 004°09'0 0.0
2015-May-24 14:33N 51°57' E 004°09'0 0.0
2015-May-24 13:33N 51°57' E 004°09'0 0.0
2015-May-24 12:33N 51°57' E 004°09'0 0.0
2015-May-24 11:33N 51°57' E 004°09'0 0.0
2015-May-24 10:33N 51°57' E 004°09'0 0.0
2015-May-24 09:33N 51°57' E 004°09'0 0.0
2015-May-24 08:33N 51°57' E 004°09'0 0.0
2015-May-24 07:33N 51°57' E 004°09'0 0.0
2015-May-24 06:33N 51°57' E 004°09'0 0.0
2015-May-24 05:33N 51°57' E 004°09'0 0.0
2015-May-24 04:33N 51°57' E 004°09'0 0.0
2015-May-24 03:33N 51°57' E 004°09'0 0.0
2015-May-24 02:33N 51°57' E 004°09'0 0.0
2015-May-24 01:33N 51°57' E 004°09'0 0.0
2015-May-24 00:33N 51°57' E 004°09'0 0.0
2015-May-23 23:33N 51°57' E 004°09'0 0.0
2015-May-23 22:33N 51°57' E 004°09'0 0.0
2015-May-23 21:33N 51°57' E 004°09'0 0.0
2015-May-23 20:33N 51°57' E 004°09'0 0.0
2015-May-23 19:33N 51°57' E 004°09'0 0.0
2015-May-23 18:33N 51°57' E 004°09'0 0.0
2015-May-23 17:33N 51°57' E 004°09'1 0.9
2015-May-23 16:33N 51°58' E 004°08'6 6.4
2015-May-23 15:33N 51°54' E 004°16'1110.7
2015-May-23 14:33N 51°50' E 004°32'9 8.5
2015-May-23 13:33N 51°42' E 004°35'0 0.1
2015-May-23 12:33N 51°41' E 004°36'0 0.0
2015-May-23 11:33N 51°41' E 004°36'0 0.0
2015-May-23 10:33N 51°41' E 004°36'0 0.0
2015-May-23 09:33N 51°41' E 004°36'0 0.0
2015-May-23 08:33N 51°41' E 004°36'0 0.0
2015-May-23 07:33N 51°41' E 004°36'0 0.0
2015-May-23 06:33N 51°41' E 004°36'0 0.0
2015-May-23 05:33N 51°41' E 004°36'0 0.0
2015-May-23 04:33N 51°41' E 004°36'0 0.0
2015-May-23 03:33N 51°41' E 004°36'0 0.0
2015-May-23 02:33N 51°41' E 004°36'0 0.0
2015-May-23 01:33N 51°41' E 004°36'0 0.0
2015-May-23 00:33N 51°41' E 004°36'0 0.0
2015-May-22 23:33N 51°41' E 004°36'0 0.0
2015-May-22 22:33N 51°41' E 004°36'0 0.0
2015-May-22 21:33N 51°41' E 004°36'0 0.0
2015-May-22 20:33N 51°41' E 004°36'0 0.0
2015-May-22 19:33N 51°41' E 004°36'0 0.0
2015-May-22 18:33N 51°41' E 004°36'0 0.0
2015-May-22 17:33N 51°41' E 004°36'0 0.0
2015-May-22 16:33N 51°41' E 004°36'0 0.0
2015-May-22 15:33N 51°41' E 004°36'0 0.0
2015-May-22 14:33N 51°41' E 004°36'4 3.8
2015-May-22 13:33N 51°45' E 004°38'6 6.1
2015-May-22 12:33N 51°50' E 004°32'7 7.3
2015-May-22 11:33N 51°52' E 004°20'6 5.9
2015-May-22 10:33N 51°56' E 004°13'7 7.2
2015-May-22 09:33N 51°59' E 004°03'9 9.1
2015-May-22 08:33N 52°01' E 003°49'1010.1
2015-May-22 07:33N 51°57' E 003°34'1110.4
2015-May-22 06:31N 51°54' E 003°17'2510.4
2015-May-22 04:07N 51°46' E 002°38'611.1
2015-May-22 03:33N 51°41' E 002°32'1111.0
2015-May-22 02:34N 51°32' E 002°21'1010.3
2015-May-22 01:33N 51°24' E 002°12'10 9.9
2015-May-22 00:34N 51°15' E 002°06'8 8.3
2015-May-21 23:34N 51°10' E 001°55'7 7.3
2015-May-21 22:33N 51°05' E 001°46'7 6.6
2015-May-21 21:33N 51°01' E 001°39'7 6.5
2015-May-21 20:33N 50°56' E 001°32'7 7.1
2015-May-21 19:33N 50°49' E 001°27'8 8.2
2015-May-21 18:33N 50°42' E 001°22'9 8.5
2015-May-21 17:33N 50°36' E 001°13'  
Track history (hours):
 
Tides and Currents Weather Stations Pressure Air Temp Water Temp Dewpoint Dewpoint Depression Visibility Wind Speed Wind Dir Waves Ship Positions

Clare Christine

Last reported at 2015-May-27 16:28 UTC. Time now 2015-May-27 22:05 UTC.
Position N 54°15' E 005°13'.

Length 89 m; draft 5.6 m.

Type: Cargo ship. MMSI: 305379000.

Date/timePositionNaut miles runAvg speedWind from/ knotsBaromVisibWave heightAir tempDewpointWater temp
2015-May-27 16:28N 54°15' E 005°13'9 9.5
2015-May-27 15:33N 54°06' E 005°10'10 9.6
2015-May-27 14:33N 53°57' E 005°04'10 9.8
2015-May-27 13:32N 53°48' E 004°58'1010.4
2015-May-27 12:33N 53°38' E 004°52'1110.6
2015-May-27 11:33N 53°29' E 004°45'1110.7
2015-May-27 10:33N 53°19' E 004°38'41 9.7
2015-May-27 06:22N 52°43' E 004°05'17 8.1
2015-May-27 04:18N 52°28' E 003°54'6 7.8
2015-May-27 03:32N 52°22' E 003°52'8 7.9
2015-May-27 02:33N 52°14' E 003°53'8 8.1
2015-May-27 01:33N 52°06' E 003°55'6 6.2
2015-May-27 00:33N 52°01' E 003°60'6 6.2
2015-May-26 23:33N 51°57' E 004°08'0 0.0
2015-May-26 22:34N 51°57' E 004°08'0 0.0
2015-May-26 21:33N 51°57' E 004°08'0 0.0
2015-May-26 20:33N 51°57' E 004°08'0 0.0
2015-May-26 19:33N 51°57' E 004°08'0 0.0
2015-May-26 18:33N 51°57' E 004°08'0 0.0
2015-May-26 17:33N 51°57' E 004°08'1 0.9
2015-May-26 16:33N 51°57' E 004°09'0 0.0
2015-May-26 15:33N 51°57' E 004°09'0 0.0
2015-May-26 14:33N 51°57' E 004°09'0 0.0
2015-May-26 13:33N 51°57' E 004°09'0 0.0
2015-May-26 12:33N 51°57' E 004°09'0 0.0
2015-May-26 11:33N 51°57' E 004°09'0 0.0
2015-May-26 10:33N 51°57' E 004°09'0 0.0
2015-May-26 09:33N 51°57' E 004°09'0 0.0
2015-May-26 08:33N 51°57' E 004°09'0 0.0
2015-May-26 07:33N 51°57' E 004°09'0 0.0
2015-May-26 06:33N 51°57' E 004°09'0 0.0
2015-May-26 05:33N 51°57' E 004°09'0 0.0
2015-May-26 04:33N 51°57' E 004°09'0 0.0
2015-May-26 03:33N 51°57' E 004°09'0 0.0
2015-May-26 02:33N 51°57' E 004°09'0 0.0
2015-May-26 01:33N 51°57' E 004°09'0 0.0
2015-May-26 00:33N 51°57' E 004°09'0 0.0
2015-May-25 23:33N 51°57' E 004°09'0 0.0
2015-May-25 22:33N 51°57' E 004°09'0 0.0
2015-May-25 21:33N 51°57' E 004°09'0 0.0
2015-May-25 20:33N 51°57' E 004°09'0 0.0
2015-May-25 19:33N 51°57' E 004°09'0 0.0
2015-May-25 18:33N 51°57' E 004°09'0 0.0
2015-May-25 17:33N 51°57' E 004°09'0 0.0
2015-May-25 16:33N 51°57' E 004°09'0 0.0
2015-May-25 15:33N 51°57' E 004°09'0 0.0
2015-May-25 14:33N 51°57' E 004°09'0 0.0
2015-May-25 13:33N 51°57' E 004°09'0 0.0
2015-May-25 12:33N 51°57' E 004°09'0 0.0
2015-May-25 11:33N 51°57' E 004°09'0 0.0
2015-May-25 10:33N 51°57' E 004°09'0 0.0
2015-May-25 09:33N 51°57' E 004°09'0 0.0
2015-May-25 08:33N 51°57' E 004°09'0 0.0
2015-May-25 07:33N 51°57' E 004°09'0 0.0
2015-May-25 06:33N 51°57' E 004°09'0 0.0
2015-May-25 05:33N 51°57' E 004°09'0 0.0
2015-May-25 04:33N 51°57' E 004°09'0 0.0
2015-May-25 03:33N 51°57' E 004°09'0 0.0
2015-May-25 02:33N 51°57' E 004°09'0 0.0
2015-May-25 01:33N 51°57' E 004°09'0 0.0
2015-May-25 00:33N 51°57' E 004°09'0 0.0
2015-May-24 23:33N 51°57' E 004°09'0 0.0
2015-May-24 22:33N 51°57' E 004°09'0 0.0
2015-May-24 21:33N 51°57' E 004°09'0 0.0
2015-May-24 20:33N 51°57' E 004°09'0 0.0
2015-May-24 19:33N 51°57' E 004°09'0 0.0
2015-May-24 18:33N 51°57' E 004°09'0 0.0
2015-May-24 17:33N 51°57' E 004°09'0 0.0
2015-May-24 16:33N 51°57' E 004°09'0 0.0
2015-May-24 15:33N 51°57' E 004°09'0 0.0
2015-May-24 14:33N 51°57' E 004°09'0 0.0
2015-May-24 13:33N 51°57' E 004°09'0 0.0
2015-May-24 12:33N 51°57' E 004°09'0 0.0
2015-May-24 11:33N 51°57' E 004°09'0 0.0
2015-May-24 10:33N 51°57' E 004°09'0 0.0
2015-May-24 09:33N 51°57' E 004°09'0 0.0
2015-May-24 08:33N 51°57' E 004°09'0 0.0
2015-May-24 07:33N 51°57' E 004°09'0 0.0
2015-May-24 06:33N 51°57' E 004°09'0 0.0
2015-May-24 05:33N 51°57' E 004°09'0 0.0
2015-May-24 04:33N 51°57' E 004°09'0 0.0
2015-May-24 03:33N 51°57' E 004°09'0 0.0
2015-May-24 02:33N 51°57' E 004°09'0 0.0
2015-May-24 01:33N 51°57' E 004°09'0 0.0
2015-May-24 00:33N 51°57' E 004°09'0 0.0
2015-May-23 23:33N 51°57' E 004°09'0 0.0
2015-May-23 22:33N 51°57' E 004°09'0 0.0
2015-May-23 21:33N 51°57' E 004°09'0 0.0
2015-May-23 20:33N 51°57' E 004°09'0 0.0
2015-May-23 19:33N 51°57' E 004°09'0 0.0
2015-May-23 18:33N 51°57' E 004°09'0 0.0
2015-May-23 17:33N 51°57' E 004°09'1 0.9
2015-May-23 16:33N 51°58' E 004°08'6 6.4
2015-May-23 15:33N 51°54' E 004°16'1110.7
2015-May-23 14:33N 51°50' E 004°32'9 8.5
2015-May-23 13:33N 51°42' E 004°35'0 0.1
2015-May-23 12:33N 51°41' E 004°36'0 0.0
2015-May-23 11:33N 51°41' E 004°36'0 0.0
2015-May-23 10:33N 51°41' E 004°36'0 0.0
2015-May-23 09:33N 51°41' E 004°36'0 0.0
2015-May-23 08:33N 51°41' E 004°36'0 0.0
2015-May-23 07:33N 51°41' E 004°36'0 0.0
2015-May-23 06:33N 51°41' E 004°36'0 0.0
2015-May-23 05:33N 51°41' E 004°36'0 0.0
2015-May-23 04:33N 51°41' E 004°36'0 0.0
2015-May-23 03:33N 51°41' E 004°36'0 0.0
2015-May-23 02:33N 51°41' E 004°36'0 0.0
2015-May-23 01:33N 51°41' E 004°36'0 0.0
2015-May-23 00:33N 51°41' E 004°36'0 0.0
2015-May-22 23:33N 51°41' E 004°36'0 0.0
2015-May-22 22:33N 51°41' E 004°36'0 0.0
2015-May-22 21:33N 51°41' E 004°36'0 0.0
2015-May-22 20:33N 51°41' E 004°36'0 0.0
2015-May-22 19:33N 51°41' E 004°36'0 0.0
2015-May-22 18:33N 51°41' E 004°36'0 0.0
2015-May-22 17:33N 51°41' E 004°36'0 0.0
2015-May-22 16:33N 51°41' E 004°36'0 0.0
2015-May-22 15:33N 51°41' E 004°36'0 0.0
2015-May-22 14:33N 51°41' E 004°36'4 3.8
2015-May-22 13:33N 51°45' E 004°38'6 6.1
2015-May-22 12:33N 51°50' E 004°32'7 7.3
2015-May-22 11:33N 51°52' E 004°20'6 5.9
2015-May-22 10:33N 51°56' E 004°13'7 7.2
2015-May-22 09:33N 51°59' E 004°03'9 9.1
2015-May-22 08:33N 52°01' E 003°49'1010.1
2015-May-22 07:33N 51°57' E 003°34'1110.4
2015-May-22 06:31N 51°54' E 003°17'2510.4
2015-May-22 04:07N 51°46' E 002°38'611.1
2015-May-22 03:33N 51°41' E 002°32'1111.0
2015-May-22 02:34N 51°32' E 002°21'1010.3
2015-May-22 01:33N 51°24' E 002°12'10 9.9
2015-May-22 00:34N 51°15' E 002°06'8 8.3
2015-May-21 23:34N 51°10' E 001°55'7 7.3
2015-May-21 22:33N 51°05' E 001°46'7 6.6
2015-May-21 21:33N 51°01' E 001°39'7 6.5
2015-May-21 20:33N 50°56' E 001°32'7 7.1
2015-May-21 19:33N 50°49' E 001°27'8 8.2
2015-May-21 18:33N 50°42' E 001°22'9 8.5
2015-May-21 17:33N 50°36' E 001°13'  

Dump ship's entire track history